Time;durP1;ratioP1;P1;durP2;ratioP2;P2;SDS_P1;SDS_P2;PMS_P1;PMS_P2;Temp;Humidity;BMP_temperature;BMP_pressure;BME280_temperature;BME280_humidity;BME280_pressure;Samples;Min_cycle;Max_cycle;Signal;HPM_P1;HPM_P2
2021/03/20 00:00:37;;;;;;;6.65;2.35;;;1.00;62.70;;;;;;5047877;28;20048;-69
2021/03/20 00:03:03;;;;;;;6.82;2.45;;;1.00;64.40;;;;;;5042211;28;20025;-69
2021/03/20 00:05:29;;;;;;;8.02;2.83;;;1.00;64.70;;;;;;5041803;28;20066;-69
2021/03/20 00:07:55;;;;;;;8.18;3.22;;;1.00;64.70;;;;;;5030498;28;20032;-69
2021/03/20 00:10:23;;;;;;;10.63;3.58;;;1.00;65.40;;;;;;5039933;28;20148;-69
2021/03/20 00:12:50;;;;;;;10.70;3.17;;;1.00;64.00;;;;;;5047567;28;20033;-69
2021/03/20 00:15:19;;;;;;;7.68;3.33;;;1.00;64.80;;;;;;5049132;28;20671;-69
2021/03/20 00:17:45;;;;;;;8.68;3.05;;;1.00;65.00;;;;;;5048142;28;20376;-69
2021/03/20 00:20:15;;;;;;;8.88;4.10;;;1.00;65.10;;;;;;5050140;28;20123;-69
2021/03/20 00:22:41;;;;;;;10.07;3.00;;;1.00;65.60;;;;;;5036567;28;20116;-69
2021/03/20 00:25:07;;;;;;;5.80;2.90;;;1.00;65.90;;;;;;5049346;28;20170;-69
2021/03/20 00:27:34;;;;;;;5.30;2.60;;;1.00;65.20;;;;;;5048347;28;20024;-69
2021/03/20 00:30:00;;;;;;;7.80;2.67;;;1.00;66.00;;;;;;5049315;28;20029;-69
2021/03/20 00:32:26;;;;;;;7.88;3.22;;;1.00;65.70;;;;;;5050129;28;20036;-69
2021/03/20 00:34:52;;;;;;;8.80;2.65;;;1.00;65.50;;;;;;5047072;28;20055;-69
2021/03/20 00:37:17;;;;;;;5.63;2.47;;;1.00;65.10;;;;;;5048103;28;20049;-68
2021/03/20 00:39:44;;;;;;;6.88;2.70;;;1.00;65.50;;;;;;5046212;28;20058;-69
2021/03/20 00:42:10;;;;;;;7.90;2.95;;;1.00;65.70;;;;;;5048875;28;20021;-69
2021/03/20 00:44:36;;;;;;;6.50;2.83;;;1.00;65.90;;;;;;5047590;28;20032;-69
2021/03/20 00:47:04;;;;;;;6.18;2.50;;;1.00;66.30;;;;;;5050304;28;20025;-69
2021/03/20 00:49:30;;;;;;;6.85;2.60;;;1.00;66.00;;;;;;5048211;28;20383;-69
2021/03/20 00:51:56;;;;;;;6.05;3.28;;;1.00;65.50;;;;;;5030065;28;20063;-69
2021/03/20 00:54:22;;;;;;;6.90;2.83;;;1.00;66.00;;;;;;5039027;28;20064;-68
2021/03/20 00:56:48;;;;;;;6.60;2.65;;;1.00;66.10;;;;;;5046373;28;20032;-69
2021/03/20 00:59:13;;;;;;;11.95;3.30;;;1.00;66.50;;;;;;5047575;28;20033;-69
2021/03/20 01:01:39;;;;;;;6.82;2.50;;;1.00;66.10;;;;;;5049153;28;20402;-69
2021/03/20 01:04:05;;;;;;;8.60;3.60;;;1.00;65.90;;;;;;5048106;28;20040;-69
2021/03/20 01:06:30;;;;;;;9.68;3.22;;;0.90;66.70;;;;;;5044856;28;20027;-69
2021/03/20 01:08:58;;;;;;;12.23;3.13;;;0.90;66.60;;;;;;5047423;28;20082;-69
2021/03/20 01:11:25;;;;;;;6.78;3.05;;;0.90;66.70;;;;;;5047867;28;20025;-69
2021/03/20 01:13:52;;;;;;;5.53;2.20;;;0.90;67.00;;;;;;5050014;28;20114;-68
2021/03/20 01:16:18;;;;;;;7.55;3.05;;;0.90;67.30;;;;;;5050742;28;20100;-69
2021/03/20 01:18:44;;;;;;;13.48;3.70;;;0.80;67.20;;;;;;5048342;28;20108;-69
2021/03/20 01:21:11;;;;;;;11.90;3.40;;;0.80;67.20;;;;;;5049632;28;20110;-69
2021/03/20 01:23:37;;;;;;;6.90;2.97;;;0.80;67.30;;;;;;5034347;28;20506;-68
2021/03/20 01:26:03;;;;;;;10.10;3.20;;;0.80;67.50;;;;;;5048485;28;20100;-69
2021/03/20 01:28:31;;;;;;;13.02;3.75;;;0.80;67.50;;;;;;5046428;28;20029;-69
2021/03/20 01:30:57;;;;;;;10.55;3.17;;;0.70;67.70;;;;;;5048742;28;20041;-69
2021/03/20 01:33:23;;;;;;;6.32;2.80;;;0.70;68.00;;;;;;5048542;28;20025;-69
2021/03/20 01:35:49;;;;;;;8.90;3.45;;;0.80;68.10;;;;;;5049796;28;20108;-68
2021/03/20 01:38:15;;;;;;;5.95;3.15;;;0.80;67.60;;;;;;5049244;28;20044;-68
2021/03/20 01:40:46;;;;;;;10.15;2.85;;;0.80;67.70;;;;;;5049879;28;20027;-69
2021/03/20 01:43:13;;;;;;;9.60;2.72;;;0.80;68.30;;;;;;5049728;28;20029;-69
2021/03/20 01:45:42;;;;;;;8.68;2.60;;;0.70;67.70;;;;;;5047313;28;20502;-69
2021/03/20 01:48:18;;;;;;;13.05;4.00;;;0.70;67.10;;;;;;5047233;28;20490;-69
2021/03/20 01:50:50;;;;;;;4.88;2.17;;;0.70;67.80;;;;;;5048327;28;20037;-68
2021/03/20 01:53:34;;;;;;;5.57;2.35;;;0.70;67.70;;;;;;5052000;28;20044;-69
2021/03/20 01:56:02;;;;;;;6.57;1.92;;;0.70;68.00;;;;;;5050674;28;20394;-68
2021/03/20 01:58:30;;;;;;;6.70;1.90;;;0.70;67.60;;;;;;5047781;28;20090;-69
2021/03/20 02:01:12;;;;;;;6.95;1.60;;;0.70;68.20;;;;;;5047474;28;20029;-70
2021/03/20 02:03:38;;;;;;;5.65;1.67;;;0.80;68.20;;;;;;5048294;28;20043;-68
2021/03/20 02:06:06;;;;;;;3.85;1.50;;;0.70;67.80;;;;;;5044970;28;20033;-69
2021/03/20 02:08:32;;;;;;;3.10;1.48;;;0.80;68.00;;;;;;5044893;28;20025;-68
2021/03/20 02:11:14;;;;;;;6.60;1.55;;;0.80;67.70;;;;;;5049269;28;20102;-70
2021/03/20 02:13:44;;;;;;;5.25;1.60;;;0.80;67.90;;;;;;5048933;28;20068;-68
2021/03/20 02:16:24;;;;;;;8.48;1.60;;;0.80;68.00;;;;;;5046843;28;20060;-69
2021/03/20 02:19:35;;;;;;;6.63;2.20;;;0.80;67.80;;;;;;5047954;28;20570;-68
2021/03/20 02:22:03;;;;;;;;;;;0.80;68.80;;;;;;5020415;28;20076;-69
2021/03/20 02:25:04;;;;;;;5.28;1.77;;;0.80;68.70;;;;;;5043933;28;19913;-69
2021/03/20 02:28:12;;;;;;;4.03;1.30;;;0.80;67.60;;;;;;5048499;28;20059;-69
2021/03/20 02:30:50;;;;;;;3.80;1.30;;;0.80;67.90;;;;;;5048309;28;20517;-69
2021/03/20 02:33:24;;;;;;;5.82;1.40;;;0.80;67.80;;;;;;5048464;28;20032;-68
2021/03/20 02:36:25;;;;;;;4.65;1.23;;;0.90;67.50;;;;;;5048782;28;20082;-68
2021/03/20 02:39:22;;;;;;;3.05;1.27;;;0.90;67.50;;;;;;5048428;28;20112;-69
2021/03/20 02:41:54;;;;;;;6.55;1.50;;;0.90;67.60;;;;;;5022015;28;20059;-69
2021/03/20 02:44:26;;;;;;;4.55;1.20;;;0.90;68.40;;;;;;5049151;28;20056;-69
2021/03/20 02:46:51;;;;;;;5.25;1.13;;;0.90;67.80;;;;;;5047666;28;20032;-69
2021/03/20 02:49:36;;;;;;;8.98;4.43;;;0.90;67.90;;;;;;5049803;28;20021;-69
2021/03/20 02:52:08;;;;;;;5.20;1.42;;;0.90;67.00;;;;;;5042043;28;20100;-69
2021/03/20 02:54:55;;;;;;;5.07;1.40;;;0.90;68.20;;;;;;5048472;28;20029;-69
2021/03/20 02:57:32;;;;;;;2.50;1.20;;;0.90;68.10;;;;;;5049695;28;20395;-69
2021/03/20 03:00:10;;;;;;;3.90;1.23;;;0.90;67.70;;;;;;5049835;28;20120;-69
2021/03/20 03:02:37;;;;;;;4.05;1.40;;;0.90;67.90;;;;;;5050644;28;20029;-68
2021/03/20 03:05:08;;;;;;;4.82;1.65;;;0.90;67.40;;;;;;5036869;28;20025;-69
2021/03/20 03:07:42;;;;;;;6.30;1.67;;;0.90;67.50;;;;;;5051433;28;20041;-68
2021/03/20 03:10:09;;;;;;;5.38;1.25;;;0.90;67.70;;;;;;5051818;28;20036;-68
2021/03/20 03:12:46;;;;;;;8.23;1.45;;;0.90;67.20;;;;;;5051484;28;20569;-68
2021/03/20 03:15:20;;;;;;;3.88;1.20;;;0.80;67.30;;;;;;5052019;28;20032;-68
2021/03/20 03:17:51;;;;;;;3.53;1.08;;;0.80;67.10;;;;;;5051470;28;20055;-68
2021/03/20 03:20:25;;;;;;;6.20;1.20;;;0.90;67.60;;;;;;5032111;28;20068;-68
2021/03/20 03:22:57;;;;;;;5.20;1.63;;;0.90;66.60;;;;;;5053571;28;20131;-68
2021/03/20 03:25:25;;;;;;;4.20;1.10;;;0.80;67.20;;;;;;5049254;28;20025;-68
2021/03/20 03:27:55;;;;;;;6.38;1.85;;;0.80;68.10;;;;;;5073110;22;20048;-69
2021/03/20 03:30:24;;;;;;;4.07;1.30;;;0.80;67.90;;;;;;5047142;28;20484;-69
2021/03/20 03:33:23;;;;;;;3.25;1.58;;;0.80;67.10;;;;;;5056410;28;20041;-71
2021/03/20 03:35:52;;;;;;;3.38;1.20;;;0.80;67.20;;;;;;5050785;28;20048;-69
2021/03/20 03:38:27;;;;;;;6.35;1.30;;;0.80;68.10;;;;;;5032662;28;20099;-69
2021/03/20 03:41:16;;;;;;;4.68;1.30;;;0.80;67.40;;;;;;5050834;28;20032;-71
2021/03/20 03:43:44;;;;;;;3.65;1.42;;;0.80;67.70;;;;;;5051843;28;21325;-71
2021/03/20 03:46:11;;;;;;;2.50;1.17;;;0.80;67.00;;;;;;5033169;28;20517;-69
2021/03/20 03:48:37;;;;;;;2.75;1.35;;;0.80;67.20;;;;;;5048447;28;20033;-70
2021/03/20 03:51:17;;;;;;;2.15;1.20;;;0.80;66.90;;;;;;5051070;28;20029;-71
2021/03/20 03:53:43;;;;;;;5.65;1.50;;;0.80;66.60;;;;;;5032111;28;20021;-69
2021/03/20 03:56:36;;;;;;;3.13;1.13;;;0.90;67.70;;;;;;5050579;28;20485;-70
2021/03/20 03:59:14;;;;;;;4.70;1.30;;;0.90;67.50;;;;;;5042060;28;20071;-70
2021/03/20 04:02:02;;;;;;;4.25;1.20;;;0.90;67.50;;;;;;5048638;28;20025;-71
2021/03/20 04:05:05;;;;;;;3.70;1.42;;;0.80;67.60;;;;;;5050112;28;20103;-70
2021/03/20 04:07:52;;;;;;;3.80;1.45;;;0.80;67.90;;;;;;5049781;28;20497;-71
2021/03/20 04:10:37;;;;;;;3.97;1.38;;;0.80;67.90;;;;;;5049547;28;20021;-70
2021/03/20 04:13:41;;;;;;;3.13;1.48;;;0.80;67.70;;;;;;5045693;28;20036;-70
2021/03/20 04:16:11;;;;;;;4.05;1.40;;;0.80;67.00;;;;;;5047663;28;20100;-70
2021/03/20 04:19:24;;;;;;;5.30;1.45;;;0.80;67.40;;;;;;5031772;28;20040;-70
2021/03/20 04:21:54;;;;;;;3.42;1.23;;;0.80;68.00;;;;;;4969392;28;20038;-71
2021/03/20 04:24:37;;;;;;;4.88;1.80;;;0.80;67.30;;;;;;5035365;28;20045;-71
2021/03/20 04:27:11;;;;;;;5.68;1.30;;;0.80;68.30;;;;;;5049714;28;20033;-70
2021/03/20 04:30:09;;;;;;;4.07;1.20;;;0.80;67.90;;;;;;5048674;28;20068;-71
2021/03/20 04:32:49;;;;;;;7.13;1.73;;;0.80;66.80;;;;;;5049712;28;20035;-71
2021/03/20 04:35:40;;;;;;;4.15;1.50;;;0.80;67.80;;;;;;5049795;28;20040;-70
2021/03/20 04:38:11;;;;;;;5.65;1.50;;;0.80;67.80;;;;;;5043340;28;20390;-71
2021/03/20 04:40:47;;;;;;;5.10;1.40;;;0.80;68.00;;;;;;5049575;28;20021;-71
2021/03/20 04:43:16;;;;;;;2.95;2.05;;;0.80;68.30;;;;;;5032363;28;20471;-71
2021/03/20 04:45:53;;;;;;;2.83;1.40;;;0.80;68.10;;;;;;5050314;28;20037;-68
2021/03/20 04:48:40;;;;;;;7.70;2.05;;;0.80;69.30;;;;;;5048476;28;20066;-70
2021/03/20 04:51:25;;;;;;;5.30;1.70;;;0.80;68.90;;;;;;5049954;28;20025;-70
2021/03/20 04:54:12;;;;;;;3.97;1.58;;;0.70;68.90;;;;;;5049136;28;20021;-70
2021/03/20 04:56:59;;;;;;;4.07;1.60;;;0.70;68.90;;;;;;5048328;28;20080;-70
2021/03/20 04:59:52;;;;;;;7.15;1.83;;;0.70;69.40;;;;;;5048563;28;20248;-70
2021/03/20 05:02:39;;;;;;;3.10;1.50;;;0.80;68.70;;;;;;5024016;28;20375;-70
2021/03/20 05:05:27;;;;;;;6.72;1.95;;;0.70;69.50;;;;;;5048342;28;20151;-70
2021/03/20 05:07:57;;;;;;;3.08;1.40;;;0.70;69.30;;;;;;5049652;28;20108;-70
2021/03/20 05:10:43;;;;;;;5.15;1.95;;;0.70;69.30;;;;;;5048012;28;20025;-70
2021/03/20 05:13:26;;;;;;;2.90;1.33;;;0.70;70.10;;;;;;5047380;28;20032;-70
2021/03/20 05:15:59;;;;;;;3.75;1.33;;;0.70;70.10;;;;;;5049497;28;20041;-70
2021/03/20 05:18:25;;;;;;;5.50;1.73;;;0.70;70.00;;;;;;5046717;28;20487;-69
2021/03/20 05:20:50;;;;;;;7.72;1.80;;;0.60;70.20;;;;;;5047071;28;20044;-70
2021/03/20 05:23:16;;;;;;;3.50;1.98;;;0.60;70.10;;;;;;5047979;28;20029;-70
2021/03/20 05:25:42;;;;;;;3.67;1.40;;;0.60;70.40;;;;;;5048540;28;20056;-70
2021/03/20 05:28:07;;;;;;;6.57;1.50;;;0.60;70.10;;;;;;5048601;28;20138;-69
2021/03/20 05:30:33;;;;;;;4.20;1.70;;;0.60;70.00;;;;;;5047808;28;20016;-69
2021/03/20 05:32:59;;;;;;;5.78;1.63;;;0.60;70.20;;;;;;5049402;28;20431;-70
2021/03/20 05:35:26;;;;;;;5.30;2.05;;;0.60;69.80;;;;;;5031294;28;20043;-70
2021/03/20 05:37:53;;;;;;;5.35;1.60;;;0.60;71.00;;;;;;5047462;28;20025;-69
2021/03/20 05:40:32;;;;;;;6.10;2.47;;;0.60;70.80;;;;;;5048902;28;20047;-70
2021/03/20 05:43:13;;;;;;;4.55;1.45;;;0.50;70.80;;;;;;5032432;28;20032;-69
2021/03/20 05:46:24;;;;;;;2.78;1.23;;;0.50;70.30;;;;;;5047920;28;20502;-69
2021/03/20 05:49:34;;;;;;;8.30;1.95;;;0.50;70.70;;;;;;5047416;28;20110;-71
2021/03/20 05:52:28;;;;;;;6.25;1.50;;;0.50;70.90;;;;;;5050089;28;20033;-71
2021/03/20 05:55:22;;;;;;;5.47;1.60;;;0.50;69.80;;;;;;5036957;28;20090;-68
2021/03/20 05:58:24;;;;;;;5.72;1.52;;;0.50;70.40;;;;;;5047450;28;20103;-70
2021/03/20 06:01:38;;;;;;;4.88;1.50;;;0.60;70.10;;;;;;5047055;28;20044;-71
2021/03/20 06:08:12;;;;;;;6.22;1.60;;;0.60;69.60;;;;;;4946196;28;20063;-70
2021/03/20 06:10:44;;;;;;;3.17;1.50;;;0.60;70.60;;;;;;4926353;28;20135;-70
2021/03/20 06:13:54;;;;;;;5.32;1.35;;;0.60;71.00;;;;;;4945291;28;20043;-71
2021/03/20 06:16:20;;;;;;;3.50;1.42;;;0.60;70.60;;;;;;4933189;28;20045;-71
2021/03/20 06:19:11;;;;;;;3.75;1.25;;;0.70;69.90;;;;;;4945245;28;20047;-71
2021/03/20 06:21:55;;;;;;;;;;;0.70;70.00;;;;;;4948952;28;20080;-71
2021/03/20 06:24:52;;;;;;;5.78;1.50;;;0.70;71.00;;;;;;4946367;28;20013;-69
2021/03/20 06:27:33;;;;;;;4.32;1.27;;;0.70;70.90;;;;;;4945559;28;20031;-70
2021/03/20 06:30:04;;;;;;;3.65;1.23;;;0.70;70.30;;;;;;4939267;28;20076;-70
2021/03/20 06:32:41;;;;;;;5.53;1.27;;;0.80;70.50;;;;;;4945726;28;20752;-70
2021/03/20 06:35:14;;;;;;;3.70;1.20;;;0.80;70.50;;;;;;4948944;28;20031;-70
2021/03/20 06:37:46;;;;;;;6.97;1.23;;;0.80;70.20;;;;;;4949440;29;20031;-70
2021/03/20 06:40:25;;;;;;;4.75;1.55;;;0.80;70.70;;;;;;4943823;28;20046;-71
2021/03/20 06:42:52;;;;;;;6.57;1.40;;;0.80;70.70;;;;;;4949288;28;20074;-70
2021/03/20 06:45:26;;;;;;;6.95;1.40;;;0.80;70.40;;;;;;5011652;28;20037;-71
2021/03/20 06:48:20;;;;;;;3.72;1.20;;;0.80;71.00;;;;;;5051441;28;20033;-71
2021/03/20 06:50:52;;;;;;;3.92;1.42;;;0.80;71.20;;;;;;5049378;28;20028;-71
2021/03/20 06:53:28;;;;;;;3.92;1.48;;;0.80;70.70;;;;;;5033432;28;20025;-71
2021/03/20 06:55:58;;;;;;;7.97;1.83;;;0.90;70.80;;;;;;5053494;28;20059;-71
2021/03/20 06:58:38;;;;;;;4.63;1.85;;;0.90;70.80;;;;;;5051190;28;20032;-70
2021/03/20 07:01:27;;;;;;;4.22;1.50;;;0.90;70.60;;;;;;5051167;28;20033;-72
2021/03/20 07:04:21;;;;;;;3.22;1.67;;;1.00;70.30;;;;;;5050359;28;20117;-69
2021/03/20 07:07:08;;;;;;;4.50;1.45;;;1.00;70.80;;;;;;5049381;28;20356;-69
2021/03/20 07:09:37;;;;;;;2.83;1.38;;;0.90;70.70;;;;;;5050271;28;20170;-69
2021/03/20 07:12:19;;;;;;;7.80;1.98;;;0.90;70.90;;;;;;5050542;28;20498;-71
2021/03/20 07:14:48;;;;;;;4.68;2.55;;;1.00;70.30;;;;;;5051807;28;20038;-70
2021/03/20 07:17:23;;;;;;;6.32;1.42;;;1.00;70.80;;;;;;5049454;28;20047;-70
2021/03/20 07:19:52;;;;;;;4.03;1.52;;;1.00;70.30;;;;;;5033668;28;20029;-72
2021/03/20 07:22:29;;;;;;;3.75;1.35;;;1.00;70.20;;;;;;5050283;28;20033;-71
2021/03/20 07:24:56;;;;;;;6.43;1.42;;;1.10;70.20;;;;;;5034841;28;20051;-71
2021/03/20 07:27:31;;;;;;;3.15;1.42;;;1.10;70.00;;;;;;5033036;28;20044;-71
2021/03/20 07:30:07;;;;;;;3.78;1.52;;;1.10;69.80;;;;;;5050300;28;20033;-70
2021/03/20 07:32:36;;;;;;;4.32;1.23;;;1.10;69.20;;;;;;5044318;28;20025;-71
2021/03/20 07:35:20;;;;;;;3.83;1.55;;;1.20;69.30;;;;;;5033373;28;20040;-71
2021/03/20 07:37:48;;;;;;;5.53;1.55;;;1.20;69.90;;;;;;5049848;28;20151;-72
2021/03/20 07:40:19;;;;;;;7.28;2.15;;;1.20;69.60;;;;;;5051735;28;20068;-70
2021/03/20 07:42:46;;;;;;;6.82;1.48;;;1.20;69.80;;;;;;5048458;28;20033;-71
2021/03/20 07:45:17;;;;;;;5.65;2.63;;;1.30;69.10;;;;;;5050815;28;20082;-70
2021/03/20 07:48:05;;;;;;;4.20;1.45;;;1.30;69.40;;;;;;5032130;28;20028;-72
2021/03/20 07:50:31;;;;;;;3.40;1.27;;;1.30;69.20;;;;;;5051783;28;20029;-72
2021/03/20 07:53:11;;;;;;;4.43;1.40;;;1.40;69.50;;;;;;5054789;28;20090;-71
2021/03/20 07:56:12;;;;;;;5.78;2.60;;;1.50;68.50;;;;;;5050586;28;20049;-71
2021/03/20 07:58:39;;;;;;;3.05;1.17;;;1.50;68.40;;;;;;4994905;28;20502;-71
2021/03/20 08:01:11;;;;;;;4.68;1.17;;;1.60;67.90;;;;;;5046194;28;20525;-70
2021/03/20 08:03:58;;;;;;;5.00;1.52;;;1.60;67.70;;;;;;5052182;28;20025;-71
2021/03/20 08:06:28;;;;;;;5.30;1.45;;;1.70;67.30;;;;;;5031643;28;20032;-70
2021/03/20 08:09:12;;;;;;;4.13;1.48;;;1.60;68.10;;;;;;5046109;28;20376;-71
2021/03/20 08:11:39;;;;;;;6.80;1.60;;;1.70;68.00;;;;;;5049020;28;20029;-71
2021/03/20 08:14:30;;;;;;;8.32;1.60;;;1.80;67.00;;;;;;5053637;28;20053;-72
2021/03/20 08:16:58;;;;;;;4.57;1.15;;;1.80;67.90;;;;;;5050716;28;20071;-71
2021/03/20 08:19:24;;;;;;;2.90;1.20;;;1.80;67.30;;;;;;5059379;28;20021;-73
2021/03/20 08:22:07;;;;;;;4.63;1.42;;;1.80;66.80;;;;;;5052037;28;20056;-70
2021/03/20 08:24:44;;;;;;;2.72;1.00;;;1.90;67.10;;;;;;5049085;28;20033;-70
2021/03/20 08:27:37;;;;;;;6.07;1.30;;;2.00;65.70;;;;;;5030428;28;20110;-69
2021/03/20 08:30:41;;;;;;;4.60;1.10;;;2.00;66.50;;;;;;5041431;28;20017;-70
2021/03/20 08:33:13;;;;;;;3.58;1.35;;;2.00;65.00;;;;;;5049524;28;20079;-70
2021/03/20 08:36:03;;;;;;;1.90;0.90;;;2.10;65.60;;;;;;5048831;28;20036;-70
2021/03/20 08:39:25;;;;;;;3.00;1.20;;;2.10;64.50;;;;;;5032487;28;20113;-69
2021/03/20 08:41:57;;;;;;;4.00;0.85;;;2.20;63.70;;;;;;4987128;28;20088;-70
2021/03/20 08:45:02;;;;;;;6.78;1.23;;;2.20;63.10;;;;;;4983772;28;20042;-71
2021/03/20 08:47:32;;;;;;;3.80;1.30;;;2.30;62.90;;;;;;5044953;28;20091;-69
2021/03/20 08:50:19;;;;;;;3.00;1.00;;;2.40;63.20;;;;;;5040080;28;20032;-69
2021/03/20 08:53:20;;;;;;;1.52;0.77;;;2.40;62.30;;;;;;5049457;28;20451;-70
2021/03/20 08:55:52;;;;;;;4.63;1.10;;;2.40;62.20;;;;;;5049640;28;20041;-71
2021/03/20 08:58:46;;;;;;;4.82;1.40;;;2.40;62.60;;;;;;5047551;28;20033;-70
2021/03/20 09:01:23;;;;;;;4.85;1.45;;;2.50;61.50;;;;;;5047621;28;20074;-73
2021/03/20 09:03:52;;;;;;;5.43;1.08;;;2.60;61.00;;;;;;5047343;28;20031;-74
2021/03/20 09:06:24;;;;;;;2.50;0.95;;;2.50;61.20;;;;;;5025893;28;20036;-69
2021/03/20 09:08:57;;;;;;;7.70;1.30;;;2.40;61.40;;;;;;5046839;28;20095;-70
2021/03/20 09:11:36;;;;;;;6.60;1.17;;;2.50;61.00;;;;;;5047843;28;20033;-71
2021/03/20 09:14:23;;;;;;;4.13;1.15;;;2.50;61.60;;;;;;5031165;28;20037;-70
2021/03/20 09:16:51;;;;;;;2.55;0.70;;;2.50;61.20;;;;;;5049578;28;20047;-74
2021/03/20 09:19:30;;;;;;;1.77;0.88;;;2.50;61.50;;;;;;5030794;28;20155;-72
2021/03/20 09:22:02;;;;;;;2.67;0.90;;;2.50;61.00;;;;;;5022528;28;20027;-71
2021/03/20 09:24:30;;;;;;;4.28;1.15;;;2.60;60.90;;;;;;5049286;28;20041;-75
2021/03/20 09:29:28;;;;;;;4.88;0.95;;;2.70;61.10;;;;;;5060724;23;20048;-69
2021/03/20 09:31:54;;;;;;;4.88;1.25;;;2.70;60.20;;;;;;5030638;28;20484;-66
2021/03/20 09:34:26;;;;;;;4.10;1.30;;;2.80;60.60;;;;;;5049872;28;20060;-68
2021/03/20 09:36:52;;;;;;;6.20;1.30;;;2.90;59.20;;;;;;5044425;28;20031;-68
2021/03/20 09:39:49;;;;;;;3.65;1.25;;;2.90;59.60;;;;;;5034432;28;20058;-66
2021/03/20 09:42:27;;;;;;;4.90;1.35;;;3.00;60.30;;;;;;5035194;28;20037;-69
2021/03/20 09:44:58;;;;;;;3.72;1.27;;;3.00;59.40;;;;;;5044914;28;20029;-68
2021/03/20 09:47:34;;;;;;;3.15;1.35;;;3.10;59.90;;;;;;5047616;28;20414;-70
2021/03/20 09:50:07;;;;;;;6.65;1.90;;;3.10;60.60;;;;;;5048336;28;20031;-68
2021/03/20 09:52:42;;;;;;;4.53;1.70;;;3.20;60.40;;;;;;5026940;28;20021;-72
2021/03/20 09:55:29;;;;;;;3.60;1.20;;;3.30;59.10;;;;;;5044639;28;20047;-70
2021/03/20 09:58:01;;;;;;;2.55;1.33;;;3.30;59.20;;;;;;5047999;28;20112;-69
2021/03/20 10:00:47;;;;;;;4.05;1.38;;;3.20;59.90;;;;;;5045181;28;20025;-70
2021/03/20 10:03:40;;;;;;;5.22;1.48;;;3.30;59.20;;;;;;5046822;28;20033;-69
2021/03/20 10:06:35;;;;;;;7.13;1.48;;;3.30;59.20;;;;;;5047379;28;20032;-67
2021/03/20 10:09:07;;;;;;;6.13;1.52;;;3.30;59.90;;;;;;5047641;28;20040;-70
2021/03/20 10:11:50;;;;;;;3.63;1.30;;;3.30;60.20;;;;;;5047890;28;20041;-72
2021/03/20 10:14:26;;;;;;;5.72;1.52;;;3.40;59.20;;;;;;5050612;28;20033;-74
2021/03/20 10:17:16;;;;;;;3.63;1.75;;;3.60;59.60;;;;;;5048810;28;20121;-71
2021/03/20 10:19:47;;;;;;;2.83;1.30;;;3.50;59.30;;;;;;5047155;28;20040;-70
2021/03/20 10:22:26;;;;;;;4.65;1.60;;;3.70;58.20;;;;;;5047394;28;20517;-67
2021/03/20 10:24:53;;;;;;;3.22;1.38;;;3.80;57.60;;;;;;5032052;28;20032;-67
2021/03/20 10:27:32;;;;;;;5.75;1.98;;;3.80;57.50;;;;;;5049145;28;20104;-73
2021/03/20 10:30:17;;;;;;;3.95;1.63;;;3.80;58.30;;;;;;5050938;28;20047;-70
2021/03/20 10:33:02;;;;;;;5.28;1.83;;;3.90;58.60;;;;;;5045343;28;20033;-71
2021/03/20 10:35:30;;;;;;;4.60;1.50;;;3.90;58.10;;;;;;5048648;28;20348;-70
2021/03/20 10:37:56;;;;;;;3.58;1.73;;;3.90;58.00;;;;;;5046179;28;20032;-69
2021/03/20 10:40:26;;;;;;;3.90;1.80;;;4.00;57.30;;;;;;5044837;28;20048;-68
2021/03/20 10:43:00;;;;;;;4.78;1.63;;;4.10;58.00;;;;;;5048487;28;20691;-68
2021/03/20 10:45:29;;;;;;;4.85;1.92;;;4.10;58.30;;;;;;5048154;28;20029;-68
2021/03/20 10:48:25;;;;;;;4.68;2.08;;;4.20;57.70;;;;;;5051241;28;20044;-67
2021/03/20 10:50:58;;;;;;;5.07;1.65;;;4.30;56.80;;;;;;5050998;28;20044;-68
2021/03/20 10:53:30;;;;;;;6.72;1.98;;;4.30;57.80;;;;;;5050133;28;20028;-67
2021/03/20 10:55:58;;;;;;;3.45;1.67;;;4.20;58.50;;;;;;5049839;28;20390;-67
2021/03/20 10:58:39;;;;;;;4.25;1.95;;;4.10;58.80;;;;;;5048144;28;20036;-68
2021/03/20 11:01:05;;;;;;;;;;;4.20;59.30;;;;;;5051439;28;20033;-69
2021/03/20 11:03:38;;;;;;;4.28;2.05;;;4.20;58.70;;;;;;5050452;28;19910;-68
2021/03/20 11:06:08;;;;;;;4.45;1.95;;;4.20;60.00;;;;;;5050731;28;20024;-67
2021/03/20 11:08:34;;;;;;;5.57;2.25;;;4.30;59.20;;;;;;5048554;28;20386;-68
2021/03/20 11:11:09;;;;;;;3.80;1.98;;;4.30;60.30;;;;;;5049489;28;20044;-67
2021/03/20 11:13:39;;;;;;;5.43;2.10;;;4.50;59.80;;;;;;5048009;28;20132;-66
2021/03/20 11:16:09;;;;;;;10.43;2.60;;;4.50;60.30;;;;;;5048001;28;20478;-67
2021/03/20 11:18:40;;;;;;;7.28;2.60;;;4.60;60.90;;;;;;5047413;28;20035;-67
2021/03/20 11:21:36;;;;;;;8.77;2.80;;;4.80;59.90;;;;;;5049346;28;20112;-67
2021/03/20 11:24:07;;;;;;;4.05;2.35;;;5.00;59.50;;;;;;5050955;28;20041;-67
2021/03/20 11:26:41;;;;;;;4.70;2.30;;;5.10;60.10;;;;;;5048798;28;20049;-65
2021/03/20 11:29:12;;;;;;;6.95;2.80;;;5.20;59.10;;;;;;5047412;28;20094;-66
2021/03/20 11:31:46;;;;;;;5.57;2.42;;;5.20;59.80;;;;;;5049937;28;20032;-65
2021/03/20 11:34:25;;;;;;;5.38;2.90;;;5.30;60.30;;;;;;5047872;28;20056;-68
2021/03/20 11:36:52;;;;;;;4.28;2.30;;;5.50;59.80;;;;;;5048132;28;20031;-67
2021/03/20 11:39:18;;;;;;;6.00;2.38;;;5.60;59.90;;;;;;5049109;28;20477;-65
2021/03/20 11:41:45;;;;;;;5.88;2.80;;;5.70;59.10;;;;;;5047379;28;20029;-67
2021/03/20 11:44:19;;;;;;;7.13;2.65;;;5.70;58.10;;;;;;5046235;28;20458;-65
2021/03/20 11:47:00;;;;;;;4.47;2.53;;;5.50;59.40;;;;;;5048584;28;20056;-67
2021/03/20 11:49:50;;;;;;;5.75;2.90;;;5.50;60.20;;;;;;5048514;28;20033;-66
2021/03/20 11:52:19;;;;;;;5.35;2.50;;;5.50;60.00;;;;;;5045728;28;20060;-68
2021/03/20 11:54:45;;;;;;;5.72;2.92;;;5.50;60.60;;;;;;5047043;28;20032;-67
2021/03/20 11:57:25;;;;;;;7.15;3.00;;;5.60;60.20;;;;;;5045650;28;20040;-67
2021/03/20 11:59:51;;;;;;;9.32;3.22;;;5.70;60.20;;;;;;5047151;28;20032;-67
2021/03/20 12:02:23;;;;;;;9.07;3.00;;;5.60;61.40;;;;;;5049355;28;20021;-67
2021/03/20 12:04:49;;;;;;;6.68;3.28;;;5.60;61.60;;;;;;5049039;28;20554;-68
2021/03/20 12:07:35;;;;;;;7.60;3.08;;;5.50;62.10;;;;;;5049696;28;20037;-67
2021/03/20 12:10:30;;;;;;;4.05;2.55;;;5.60;62.00;;;;;;5049221;28;20383;-67
2021/03/20 12:12:58;;;;;;;6.10;2.97;;;5.80;61.70;;;;;;5032425;28;20410;-68
2021/03/20 12:15:30;;;;;;;5.60;3.10;;;5.70;61.80;;;;;;5048020;28;20033;-67
2021/03/20 12:18:00;;;;;;;4.90;3.08;;;5.70;62.20;;;;;;5051726;28;20028;-69
2021/03/20 12:20:28;;;;;;;6.95;3.08;;;5.60;63.20;;;;;;5048094;28;20069;-70
2021/03/20 12:22:55;;;;;;;6.80;3.40;;;5.50;64.00;;;;;;5047282;28;20024;-70
2021/03/20 12:25:30;;;;;;;6.70;3.05;;;5.50;64.70;;;;;;5028038;28;20036;-68
2021/03/20 12:28:20;;;;;;;7.03;3.20;;;5.50;64.90;;;;;;5044858;28;20063;-66
2021/03/20 12:31:03;;;;;;;7.43;3.25;;;5.60;64.90;;;;;;5044501;28;20068;-66
2021/03/20 12:33:29;;;;;;;6.82;3.60;;;5.50;65.10;;;;;;5045737;28;20045;-68
2021/03/20 12:35:55;;;;;;;10.00;3.70;;;5.50;66.00;;;;;;5048673;28;20044;-68
2021/03/20 12:38:29;;;;;;;10.10;4.03;;;5.30;66.30;;;;;;5049483;28;20074;-68
2021/03/20 12:40:59;;;;;;;7.50;3.33;;;5.40;66.40;;;;;;5049182;28;20036;-68
2021/03/20 12:43:37;;;;;;;5.80;3.45;;;5.60;65.70;;;;;;5031187;28;20044;-66
2021/03/20 12:46:06;;;;;;;5.72;3.20;;;5.60;66.00;;;;;;5049027;28;20056;-68
2021/03/20 12:48:36;;;;;;;6.13;3.50;;;5.50;66.60;;;;;;5047026;28;20367;-68
2021/03/20 12:51:08;;;;;;;5.75;3.67;;;5.60;67.20;;;;;;5049487;28;20029;-68
2021/03/20 12:53:34;;;;;;;7.53;3.60;;;5.70;66.30;;;;;;5048638;28;20032;-66
2021/03/20 12:56:02;;;;;;;7.25;3.30;;;5.70;66.00;;;;;;5046850;28;20031;-68
2021/03/20 12:58:28;;;;;;;6.63;4.32;;;5.70;66.70;;;;;;5048139;28;20044;-66
2021/03/20 13:00:54;;;;;;;6.03;3.78;;;5.60;66.90;;;;;;5047355;28;20037;-70
2021/03/20 13:03:20;;;;;;;6.22;3.55;;;5.60;67.00;;;;;;5047531;28;20493;-69
2021/03/20 13:05:46;;;;;;;6.18;3.92;;;5.60;67.30;;;;;;5043438;28;20037;-68
2021/03/20 13:08:12;;;;;;;6.65;4.05;;;5.60;67.30;;;;;;5047787;28;20052;-67
2021/03/20 13:10:39;;;;;;;10.02;4.15;;;5.70;66.60;;;;;;5047457;28;20013;-68
2021/03/20 13:13:05;;;;;;;22.40;9.73;;;5.70;67.80;;;;;;5049576;28;20036;-68
2021/03/20 13:15:31;;;;;;;67.38;29.40;;;5.70;67.30;;;;;;5047085;28;21179;-69
2021/03/20 13:17:57;;;;;;;57.20;31.50;;;5.70;67.50;;;;;;5047487;28;20029;-68
2021/03/20 13:20:23;;;;;;;12.55;9.25;;;5.60;67.70;;;;;;5047422;28;20040;-69
2021/03/20 13:22:49;;;;;;;7.97;3.90;;;5.50;68.00;;;;;;5047100;28;20033;-69
2021/03/20 13:25:35;;;;;;;7.82;4.13;;;5.60;68.00;;;;;;5046812;28;20071;-67
2021/03/20 13:28:06;;;;;;;7.43;4.20;;;5.60;67.70;;;;;;5030939;28;20156;-67
2021/03/20 13:30:37;;;;;;;6.60;4.00;;;5.50;68.20;;;;;;5030352;28;20123;-67
2021/03/20 13:33:04;;;;;;;10.00;4.63;;;5.50;68.60;;;;;;5041076;28;20029;-66
2021/03/20 13:35:32;;;;;;;8.40;4.13;;;5.40;69.20;;;;;;5047696;28;20037;-67
2021/03/20 13:37:58;;;;;;;10.45;5.03;;;5.40;68.70;;;;;;5048822;28;20056;-68
2021/03/20 13:40:26;;;;;;;6.03;4.10;;;5.50;69.10;;;;;;5049308;28;20422;-69
2021/03/20 13:42:52;;;;;;;7.28;3.97;;;5.50;69.20;;;;;;5047634;28;20036;-68
2021/03/20 13:45:26;;;;;;;8.88;4.20;;;5.50;69.50;;;;;;5048438;28;20021;-67
2021/03/20 13:47:52;;;;;;;6.03;3.95;;;5.40;69.80;;;;;;5008996;28;20275;-70